Historyczne dane pomiarowe

Dodano dane terminowe – wersja testowa.

Dane z okresu 1951-2019

Wersja bazy: 1.34 [2019-03-16, lista zmian], aktualizacja planowana na 2019-04-15

Dane meteo z obszaru Polski uzyskane na podstawie danych udostępnionych przez Instytut Meteorologii i Gospodarki Wodnej – Państwowy Instytut Badawczy.

 

Wybierz Datę:    

       

TemperaturaWilgotnośćWiatrCiśnienieOpadyŚniegCzas trwania zjawisk
 Stacja t tx tn tng RH VA  wxwx mslp ppp RRR   cm mm wxwxwxwxwxwxwx
1956-11-09 -1.5 1.6 -3.3 -4.8 86.3- 1.7 2.0---- 0.0------------
1956-11-08 -0.1 4.3 -3.2 -5.0 79.8- 2.3 1.3---- 0.0------------
1956-11-07 2.2 3.4 0.4 -0.4 90.3- 5.3 1.7---- 0.0------------
1956-11-06 2.9 4.6 0.6 -0.4 86.0- 6.7 3.3---- 2.8------------
1956-11-05 4.6 8.8 2.3 1.9 82.5- 5.7 3.0---- 0.0------------
1956-11-04 2.3 5.3 -1.8 -2.9 86.8- 6.0 1.7---- 0.0------------
1956-11-03 -0.1 4.0 -2.2 -4.4 87.5- 3.7 1.0---- 0.0------------
1956-11-02 1.3 3.6 -0.1 -0.4 90.3- 5.0 0.3---- 0.0------------
1956-11-01 -0.5 2.3 -7.2-10.0 84.3- 5.3 1.7---- 0.0------------
1956-10-31 -4.4 0.8 -6.3 -7.0 86.8- 0.0 2.7---- 0.0------------
1956-10-30 1.0 4.2 0.6 0.6 88.5- 8.0 4.0---- 0.0------------
1956-10-29 4.7 8.0 4.1 4.8 93.5- 8.0 1.7---- 18.0------------
1956-10-28 8.5 9.4 7.9 7.0 93.8- 8.0 3.0---- 0.0------------
1956-10-27 7.9 9.6 5.7 4.5 91.3- 8.0 2.7---- 3.2------------
1956-10-26 6.9 9.6 6.4 4.6 88.8- 6.7 0.3---- 7.1------------
1956-10-25 11.0 15.4 9.6 8.6 80.5- 3.7 1.7---- 2.3------------
1956-10-24 13.5 16.3 7.4 6.0 82.8- 2.7 1.7---- 0.0------------
1956-10-23 11.8 14.1 10.2 9.4 75.3- 2.0 1.7---- 0.0------------
1956-10-22 12.4 14.9 8.9 6.4 83.5- 4.3 1.7---- 0.0------------
1956-10-21 12.3 16.5 8.4 5.0 83.8- 3.3 1.3---- 0.0------------
1956-10-20 10.9 13.3 7.8 5.6 83.5- 6.7 1.0---- 0.0------------
1956-10-19 10.9 14.3 8.9 11.0 88.0- 6.0 1.7---- 0.0------------
1956-10-18 11.7 14.5 8.4 7.6 91.5- 8.0 2.7---- 3.4------------
1956-10-17 10.0 16.4 1.8 1.1 70.0- 1.7 2.0---- 0.0------------
1956-10-16 6.8 13.9 -1.6 -3.3 81.3- 1.0 1.0---- 0.0------------
1956-10-15 6.0 12.4 1.6 -0.4 78.0- 5.3 1.7---- 0.0------------
1956-10-14 8.6 13.5 5.0 8.2 70.3- 2.7 4.0---- 0.0------------
1956-10-13 11.6 12.8 8.9 6.5 76.8- 6.0 5.3---- 0.0------------
1956-10-12 9.6 13.3 7.8 5.6 79.0- 5.3 2.7---- 0.0------------
1956-10-11 7.7 12.3 1.2 -0.9 85.8- 1.7 1.7---- 0.0------------
1956-10-10 4.3 10.8 -0.4 -2.9 81.0- 0.3 0.3---- 0.0------------
1956-10-09 6.3 8.8 2.9 2.1 89.3- 8.0 2.0---- 1.5------------
1956-10-08 5.5 9.0 0.2 -2.1 80.0- 6.7 2.3---- 0.0------------
1956-10-07 5.8 10.0 3.9 4.6 79.5- 4.7 2.3---- 0.2------------
1956-10-06 6.3 9.8 4.8 3.4 84.5- 5.0 2.7---- 0.6------------
1956-10-05 9.3 12.3 7.4 5.4 84.0- 4.3 1.0---- 0.0------------
1956-10-04 10.9 15.4 6.6 4.0 83.5- 6.0 1.0---- 3.7------------
1956-10-03 11.2 16.4 8.4 12.4 91.3- 5.3 1.7---- 0.4------------
1956-10-02 16.8 24.1 11.4 8.0 82.5- 4.7 1.7---- 3.4------------
1956-10-01 15.4 23.4 8.8 6.0 83.3- 3.0 1.3---- 0.0------------
1956-09-30 13.0 18.4 8.8 7.6 78.5- 4.0 2.3---- 0.0------------
1956-09-29 14.8 16.5 14.0 14.2 71.5- 3.7 2.7---- 0.0------------
1956-09-28 16.3 19.4 13.4 11.0 56.8- 5.7 4.7---- 0.0------------
1956-09-27 16.6 22.3 12.2 10.0 77.3- 4.0 2.0---- 0.0------------
1956-09-26 16.9 22.9 9.2 6.4 61.0- 0.0 2.3---- 0.0------------
1956-09-25 13.8 21.3 5.1 4.0 70.3- 0.0 1.7---- 0.0------------
1956-09-24 11.7 16.9 5.7 4.0 74.5- 0.0 2.7---- 0.0------------
1956-09-23 13.8 19.1 8.4 5.4 72.8- 0.0 4.0---- 0.0------------
1956-09-22 12.9 19.7 5.3 3.1 71.0- 0.0 2.7---- 0.0------------
1956-09-21 11.6 18.7 3.3 2.6 75.0- 0.0 0.7---- 0.0------------
1956-09-20 11.4 17.5 5.3 2.7 81.5- 0.7 0.3---- 0.0------------
1956-09-19 8.9 16.9 1.6 -0.5 80.3- 1.3 0.7---- 0.0------------
1956-09-18 8.0 14.9 2.9 1.1 77.5- 2.3 1.0---- 0.0------------
1956-09-17 9.0 13.7 6.8 8.6 88.5- 3.7 1.3---- 5.9------------
1956-09-16 11.3 15.1 4.8 2.1 73.8- 5.3 3.3---- 0.8------------
1956-09-15 9.9 16.1 6.8 6.2 78.5- 4.0 2.7---- 0.0------------
1956-09-14 11.2 17.9 4.5 4.0 74.8- 2.3 0.7---- 0.0------------
1956-09-13 9.0 14.5 8.2 7.0 88.3- 6.0 2.7---- 3.8------------
1956-09-12 10.0 14.6 8.8 12.0 90.3- 8.0 4.0---- 2.8------------
1956-09-11 15.0 17.9 10.9 10.2 88.8- 7.3 2.0---- 7.0------------
200.0 ms

 

Źródłem pochodzenia danych jest Instytut Meteorologii i Gospodarki Wodnej – Państwowy Instytut Badawczy. Dane Instytutu Meteorologii i Gospodarki Wodnej – Państwowego Instytutu Badawczego zostały przetworzone.

Dane źródłowe można odnaleźć na stronie https://dane.imgw.pl